岡山グライダークラブ活動状況掲示板

岡山グライダークラブ
岡山市浦安南町639-1 岡南飛行場
 使用機:シャイベ式 SF25C型 ファルケ   JA2330
      ヴァレンティン式17E型 タイフーン  JA2342
 練習日:毎日曜日  クラブルーム:電話 086-265-1810
この掲示板は岡山グライダークラブの活動状況をお知らせする掲示板です。
!!!この掲示板は投稿規制をしています。!!!
クラブ関連各種情報は 岡山グライダークラブクラブルーム      を       .
  ブリーフイング情報は  岡山グライダークラブブリーフィングルーム  をご覧下さい。 .
※写真はクリックすると拡大して見ることが出来ます。
岡南飛行場へのアクセス等は 岡南飛行場管理事務所 をご覧ください。
クラブの ホームページ ができました。

!!!最近のコロナ感染拡大に伴い、当面の間、見学者等の受入を中止しております。再開まで今しばらくお待ちください!!!

 
04月25日
by OGC at 2021/4/26(月) 01:54:26 No.20210426015320  削除コメント
1027 x 677 x 32,328バイト  <この画像は大きいので別画面で表示します>
No.1

04月25日
本日のリモート参加者
  会員      10名
  その他      0名


@本日の様子






METAR
RJBK 250000Z VRB04KT 30KM FEW030CU SCT100AC BKN/// 18/07 Q1017 A3003
RJOB 250000Z 36006KT 280V050 9999 FEW030 SCT120 BKN150 16/07 Q1017
RJOT 250000Z 36006KT 9999 FEW015 SCT030 BKN150 16/10 Q1017
RJOA 250000Z 33007KT 300V010 9999 FEW030 BKN130 15/03 Q1017
TAF
RJOB 242307Z 2500/2606 36006KT 9999 FEW020 BKN030
       TEMPO 2506/2509 01015G25KT
RJOT 242310Z 2500/2606 01005KT 9999 FEW025 SCT040
RJOA 242310Z 2500/2606 35004KT 9999 FEW040
       BECMG 2503/2505 02006KT


本日、第7回リモートブリーフィングを開催し、緊急事態宣言解除後の運用等について協議しました。


集合 10:00 解散    10:45

本日のフライトはありません。

    << 戻る || ホームページ || 最新の掲示板へ